createdAt,value
2019-05-05T00:01:08.262Z,11.84
2019-05-05T00:03:47.156Z,11.82
2019-05-05T00:06:18.455Z,11.76
2019-05-05T00:08:49.503Z,11.66
2019-05-05T00:11:32.484Z,11.62
2019-05-05T00:14:10.385Z,11.50
2019-05-05T00:16:48.424Z,11.55
2019-05-05T00:19:30.692Z,11.56
2019-05-05T00:21:55.030Z,11.54
2019-05-05T00:24:25.552Z,11.45
2019-05-05T00:26:58.600Z,11.53
2019-05-05T00:29:29.222Z,11.59
2019-05-05T00:31:59.896Z,11.53
2019-05-05T00:34:30.617Z,11.56
2019-05-05T00:37:04.458Z,11.46
2019-05-05T00:39:34.646Z,11.46
2019-05-05T00:42:05.693Z,11.51
2019-05-05T00:44:36.446Z,11.36
2019-05-05T00:47:08.618Z,11.23
2019-05-05T00:49:46.473Z,11.28
2019-05-05T00:52:14.374Z,11.31
2019-05-05T00:54:45.213Z,11.38
2019-05-05T00:57:16.426Z,11.33
2019-05-05T00:59:47.113Z,11.33
2019-05-05T01:02:26.771Z,11.23
2019-05-05T01:04:59.074Z,11.26
2019-05-05T01:07:31.474Z,11.20
2019-05-05T01:10:02.443Z,11.06
2019-05-05T01:12:34.872Z,11.11
2019-05-05T01:15:06.326Z,11.12
2019-05-05T01:17:36.952Z,11.15
2019-05-05T01:20:07.695Z,11.07
2019-05-05T01:22:38.333Z,11.00
2019-05-05T01:25:09.043Z,11.12
2019-05-05T01:27:39.625Z,11.01
2019-05-05T01:30:16.345Z,10.99
2019-05-05T01:32:57.847Z,10.99
2019-05-05T01:35:29.561Z,10.99
2019-05-05T01:38:01.719Z,10.95
2019-05-05T01:40:35.356Z,10.93
2019-05-05T01:43:06.231Z,10.93
2019-05-05T01:45:37.166Z,10.88
2019-05-05T01:48:08.445Z,10.86
2019-05-05T01:50:40.669Z,10.80
2019-05-05T01:53:11.295Z,10.82
2019-05-05T01:55:45.173Z,10.78
2019-05-05T01:58:16.370Z,10.59
2019-05-05T02:00:46.989Z,10.61
2019-05-05T02:03:17.610Z,10.61
2019-05-05T02:05:48.938Z,10.58
2019-05-05T02:08:20.831Z,10.52
2019-05-05T02:10:51.417Z,10.45
2019-05-05T02:13:22.443Z,10.54
2019-05-05T02:15:55.419Z,10.58
2019-05-05T02:18:29.179Z,10.59
2019-05-05T02:21:05.124Z,10.55
2019-05-05T02:23:37.585Z,10.50
2019-05-05T02:26:08.912Z,10.50
2019-05-05T02:28:47.399Z,10.59
2019-05-05T02:31:25.298Z,10.53
2019-05-05T02:33:56.845Z,10.57
2019-05-05T02:36:28.615Z,10.53
2019-05-05T02:38:59.322Z,10.47
2019-05-05T02:41:30.370Z,10.56
2019-05-05T02:44:01.541Z,10.59
2019-05-05T02:46:41.175Z,10.51
2019-05-05T02:49:14.903Z,10.44
2019-05-05T02:51:47.190Z,10.46
2019-05-05T02:54:19.880Z,10.53
2019-05-05T02:56:54.200Z,10.54
2019-05-05T02:59:29.512Z,10.62
2019-05-05T03:02:04.333Z,10.68
2019-05-05T03:04:35.139Z,10.76
2019-05-05T03:07:09.100Z,10.83
2019-05-05T03:09:41.064Z,10.82
2019-05-05T03:12:14.764Z,10.89
2019-05-05T03:14:47.106Z,11.01
2019-05-05T03:17:19.874Z,11.01
2019-05-05T03:19:53.393Z,11.21
2019-05-05T03:22:25.136Z,11.33
2019-05-05T03:24:57.351Z,11.84
2019-05-05T03:27:30.763Z,12.67
2019-05-05T03:30:04.676Z,13.06
2019-05-05T03:32:35.957Z,13.28
2019-05-05T03:35:06.664Z,13.24
2019-05-05T03:37:37.658Z,14.34
2019-05-05T03:40:10.794Z,14.50
2019-05-05T03:42:44.297Z,14.14
2019-05-05T03:45:19.727Z,14.66
2019-05-05T03:47:51.030Z,14.98
2019-05-05T03:50:23.292Z,16.25
2019-05-05T03:52:55.944Z,15.65
2019-05-05T03:55:26.558Z,15.18
2019-05-05T03:57:57.303Z,15.43
2019-05-05T04:00:40.306Z,17.48
2019-05-05T04:03:11.057Z,16.73
2019-05-05T04:05:46.992Z,16.47
2019-05-05T04:08:17.737Z,17.20
2019-05-05T04:10:50.934Z,16.75
2019-05-05T04:13:24.155Z,17.29
2019-05-05T04:16:06.675Z,17.33
2019-05-05T04:18:54.213Z,18.18
2019-05-05T04:21:33.605Z,17.00
2019-05-05T04:23:58.282Z,17.96
2019-05-05T04:26:29.121Z,17.70
2019-05-05T04:29:02.267Z,17.74
2019-05-05T04:31:34.546Z,17.47
2019-05-05T04:34:05.311Z,17.30
2019-05-05T04:36:35.916Z,17.16
2019-05-05T04:39:07.874Z,17.11
2019-05-05T04:41:38.683Z,17.41
2019-05-05T04:44:12.014Z,17.68
2019-05-05T04:46:46.365Z,17.89
2019-05-05T04:49:23.388Z,17.39
2019-05-05T04:51:58.540Z,17.31
2019-05-05T04:54:30.795Z,17.59
2019-05-05T04:57:01.487Z,17.18
2019-05-05T04:59:34.048Z,16.81
2019-05-05T05:02:06.436Z,17.55
2019-05-05T05:04:44.944Z,17.53
2019-05-05T05:07:16.697Z,18.43
2019-05-05T05:09:47.373Z,17.41
2019-05-05T05:12:19.120Z,18.18
2019-05-05T05:14:51.297Z,18.37
2019-05-05T05:17:24.931Z,19.03
2019-05-05T05:19:55.836Z,18.28
2019-05-05T05:22:26.472Z,18.55
2019-05-05T05:24:57.062Z,19.28
2019-05-05T05:27:27.838Z,19.24
2019-05-05T05:30:04.528Z,19.64
2019-05-05T05:32:36.353Z,20.88
2019-05-05T05:35:09.222Z,20.88
2019-05-05T05:37:44.580Z,19.79
2019-05-05T05:40:18.382Z,20.01
2019-05-05T05:42:50.075Z,19.67
2019-05-05T05:45:36.055Z,19.38
2019-05-05T05:48:23.691Z,20.60
2019-05-05T05:50:56.092Z,20.23
2019-05-05T05:53:26.692Z,20.61
2019-05-05T05:55:59.112Z,20.47
2019-05-05T05:58:29.926Z,20.30
2019-05-05T06:01:04.989Z,19.68
2019-05-05T06:03:36.307Z,21.42
2019-05-05T06:06:06.952Z,20.93
2019-05-05T06:08:37.694Z,21.12
2019-05-05T06:11:08.339Z,20.59
2019-05-05T06:13:40.259Z,21.03
2019-05-05T06:16:11.521Z,21.00
2019-05-05T06:18:43.839Z,21.55
2019-05-05T06:21:14.448Z,21.12
2019-05-05T06:23:45.075Z,21.44
2019-05-05T06:26:15.672Z,22.02
2019-05-05T06:28:46.644Z,21.72
2019-05-05T06:31:17.376Z,21.80
2019-05-05T06:33:48.925Z,22.14
2019-05-05T06:36:20.020Z,21.59
2019-05-05T06:38:53.789Z,21.60
2019-05-05T06:41:30.209Z,20.94
2019-05-05T06:44:05.228Z,20.04
2019-05-05T06:46:44.984Z,20.35
2019-05-05T06:49:15.635Z,20.60
2019-05-05T06:51:46.265Z,20.74
2019-05-05T06:54:16.845Z,20.91
2019-05-05T06:56:48.495Z,20.90
2019-05-05T06:59:19.198Z,20.43
2019-05-05T07:01:49.932Z,20.55
2019-05-05T07:04:24.389Z,20.57
2019-05-05T07:06:57.333Z,20.55
2019-05-05T07:09:29.650Z,20.69
2019-05-05T07:12:00.257Z,20.74
2019-05-05T07:14:31.052Z,20.74
2019-05-05T07:17:04.897Z,20.67
2019-05-05T07:19:35.299Z,20.93
2019-05-05T07:22:06.037Z,21.00
2019-05-05T07:24:37.022Z,20.91
2019-05-05T07:27:07.936Z,20.84
2019-05-05T07:29:38.541Z,20.80
2019-05-05T07:32:10.466Z,20.86
2019-05-05T07:34:45.744Z,21.26
2019-05-05T07:37:17.663Z,21.21
2019-05-05T07:39:50.002Z,21.15
2019-05-05T07:42:20.712Z,21.10
2019-05-05T07:44:52.141Z,21.14
2019-05-05T07:47:23.825Z,21.15
2019-05-05T07:49:54.700Z,21.32
2019-05-05T07:52:25.324Z,21.46
2019-05-05T07:54:59.042Z,21.19
2019-05-05T07:57:31.002Z,21.38
2019-05-05T08:00:02.736Z,21.43
2019-05-05T08:02:36.072Z,21.13
2019-05-05T08:05:08.477Z,21.32
2019-05-05T08:07:44.688Z,21.29
2019-05-05T08:10:16.551Z,21.13
2019-05-05T08:12:48.699Z,21.01
2019-05-05T08:15:21.369Z,21.17
2019-05-05T08:18:09.017Z,21.40
2019-05-05T08:20:44.334Z,21.40
2019-05-05T08:23:30.310Z,21.73
2019-05-05T08:25:58.415Z,21.70
2019-05-05T08:28:35.119Z,21.87
2019-05-05T08:31:11.811Z,21.98
2019-05-05T08:33:44.201Z,22.11
2019-05-05T08:36:14.841Z,21.89
2019-05-05T08:38:45.677Z,22.15
2019-05-05T08:41:17.326Z,22.20
2019-05-05T08:43:47.966Z,22.00
2019-05-05T08:46:18.488Z,21.94
2019-05-05T08:48:49.136Z,22.25
2019-05-05T08:51:19.757Z,21.76
2019-05-05T08:53:50.483Z,22.24
2019-05-05T08:56:21.336Z,22.64
2019-05-05T08:58:54.353Z,22.46
2019-05-05T09:01:24.440Z,22.36
2019-05-05T09:03:55.058Z,22.52
2019-05-05T09:06:25.787Z,22.45
2019-05-05T09:08:56.327Z,22.26
2019-05-05T09:11:26.956Z,22.24
2019-05-05T09:13:57.604Z,22.27
2019-05-05T09:16:28.388Z,22.09
2019-05-05T09:19:06.643Z,22.33
2019-05-05T09:21:37.359Z,22.43
2019-05-05T09:24:28.174Z,22.26
2019-05-05T09:27:00.486Z,22.33
2019-05-05T09:29:43.770Z,22.07
2019-05-05T09:32:14.276Z,21.80
2019-05-05T09:34:44.896Z,21.73
2019-05-05T09:37:15.587Z,22.26
2019-05-05T09:39:46.232Z,22.27
2019-05-05T09:42:16.902Z,22.52
2019-05-05T09:44:47.649Z,22.97
2019-05-05T09:47:24.008Z,23.12
2019-05-05T09:49:55.024Z,23.41
2019-05-05T09:52:25.671Z,23.15
2019-05-05T09:54:57.239Z,23.42
2019-05-05T09:57:28.257Z,23.21
2019-05-05T10:00:00.496Z,23.38
2019-05-05T10:02:31.497Z,22.77
2019-05-05T10:05:03.990Z,22.65
2019-05-05T10:07:34.675Z,22.49
2019-05-05T10:10:06.419Z,22.74
2019-05-05T10:12:37.137Z,23.49
2019-05-05T10:15:08.780Z,23.51
2019-05-05T10:17:39.431Z,23.60
2019-05-05T10:20:10.111Z,23.68
2019-05-05T10:22:40.693Z,23.38
2019-05-05T10:25:29.536Z,23.02
2019-05-05T10:28:00.357Z,23.16
2019-05-05T10:30:31.358Z,23.14
2019-05-05T10:33:03.787Z,23.95
2019-05-05T10:35:36.189Z,23.95
2019-05-05T10:38:06.859Z,23.93
2019-05-05T10:40:38.369Z,23.22
2019-05-05T10:43:09.096Z,22.58
2019-05-05T10:45:39.931Z,22.58
2019-05-05T10:48:10.668Z,23.47
2019-05-05T10:50:41.574Z,23.60
2019-05-05T10:53:13.652Z,23.80
2019-05-05T10:55:45.223Z,23.80
2019-05-05T10:58:15.802Z,23.56
2019-05-05T11:00:51.088Z,23.63
2019-05-05T11:03:23.744Z,23.74
2019-05-05T11:05:54.954Z,23.16
2019-05-05T11:08:25.695Z,23.16
2019-05-05T11:10:57.872Z,23.42
2019-05-05T11:13:28.759Z,23.93
2019-05-05T11:15:59.375Z,23.93
2019-05-05T11:18:29.970Z,23.63
2019-05-05T11:21:00.861Z,24.08
2019-05-05T11:23:31.530Z,24.23
2019-05-05T11:26:03.906Z,24.23
2019-05-05T11:28:34.638Z,23.91
2019-05-05T11:31:05.467Z,24.02
2019-05-05T11:33:43.834Z,24.16
2019-05-05T11:36:19.037Z,24.25
2019-05-05T11:38:53.531Z,24.32
2019-05-05T11:41:24.253Z,24.11
2019-05-05T11:43:54.981Z,24.12
2019-05-05T11:46:25.636Z,23.92
2019-05-05T11:48:56.380Z,24.18
2019-05-05T11:51:27.005Z,23.56
2019-05-05T11:53:57.624Z,23.56
2019-05-05T11:56:28.302Z,23.18
2019-05-05T11:58:59.050Z,22.83
2019-05-05T12:01:30.901Z,22.58
2019-05-05T12:04:04.914Z,23.53
2019-05-05T12:06:38.170Z,23.96
2019-05-05T12:09:13.871Z,23.96
2019-05-05T12:11:44.468Z,23.65
2019-05-05T12:14:16.658Z,23.41
2019-05-05T12:16:47.351Z,23.96
2019-05-05T12:19:18.171Z,23.96
2019-05-05T12:21:48.823Z,23.87
2019-05-05T12:24:24.654Z,23.52
2019-05-05T12:26:56.478Z,22.89
2019-05-05T12:29:27.094Z,22.89
2019-05-05T12:31:58.506Z,22.59
2019-05-05T12:34:30.671Z,22.78
2019-05-05T12:37:05.933Z,23.53
2019-05-05T12:39:37.788Z,23.58
2019-05-05T12:42:09.602Z,24.67
2019-05-05T12:44:42.665Z,24.67
2019-05-05T12:47:14.885Z,24.75
2019-05-05T12:49:48.732Z,24.42
2019-05-05T12:52:19.926Z,24.13
2019-05-05T12:54:54.498Z,24.55
2019-05-05T12:57:26.041Z,24.28
2019-05-05T12:59:58.204Z,24.47
2019-05-05T13:02:35.591Z,24.05
2019-05-05T13:05:08.135Z,23.87
2019-05-05T13:07:39.142Z,23.86
2019-05-05T13:10:13.824Z,23.69
2019-05-05T13:12:44.875Z,23.86
2019-05-05T13:15:18.657Z,23.92
2019-05-05T13:17:51.297Z,24.11
2019-05-05T13:20:30.793Z,23.96
2019-05-05T13:23:19.472Z,24.09
2019-05-05T13:26:09.683Z,23.90
2019-05-05T13:28:40.424Z,23.89
2019-05-05T13:31:11.101Z,24.34
2019-05-05T13:33:44.063Z,24.40
2019-05-05T13:36:15.407Z,24.64
2019-05-05T13:38:47.633Z,23.98
2019-05-05T13:41:18.649Z,23.72
2019-05-05T13:43:51.560Z,23.92
2019-05-05T13:46:25.395Z,23.60
2019-05-05T13:48:58.069Z,23.42
2019-05-05T13:51:29.346Z,23.53
2019-05-05T13:54:01.380Z,23.32
2019-05-05T13:56:33.624Z,23.32
2019-05-05T13:59:05.843Z,23.08
2019-05-05T14:01:38.980Z,23.87
2019-05-05T14:04:11.172Z,23.87
2019-05-05T14:06:44.483Z,23.74
2019-05-05T14:09:16.678Z,23.28
2019-05-05T14:11:47.532Z,23.28
2019-05-05T14:14:20.309Z,22.87
2019-05-05T14:16:53.921Z,22.90
2019-05-05T14:19:26.738Z,22.62
2019-05-05T14:21:58.295Z,22.42
2019-05-05T14:24:39.777Z,22.58
2019-05-05T14:27:10.714Z,22.51
2019-05-05T14:29:45.673Z,22.54
2019-05-05T14:32:21.261Z,22.33
2019-05-05T14:34:59.466Z,22.47
2019-05-05T14:37:34.062Z,22.34
2019-05-05T14:40:08.568Z,22.33
2019-05-05T14:42:39.442Z,22.22
2019-05-05T14:45:12.139Z,22.34
2019-05-05T14:47:44.167Z,22.45
2019-05-05T14:50:15.100Z,22.23
2019-05-05T14:52:45.894Z,22.20
2019-05-05T14:55:16.664Z,22.06
2019-05-05T14:57:50.427Z,21.92
2019-05-05T15:00:24.205Z,21.65
2019-05-05T15:02:55.065Z,21.64
2019-05-05T15:05:44.462Z,21.49
2019-05-05T15:08:16.609Z,21.41
2019-05-05T15:10:54.841Z,21.45
2019-05-05T15:13:25.439Z,21.47
2019-05-05T15:15:56.051Z,21.38
2019-05-05T15:18:26.726Z,21.40
2019-05-05T15:20:59.170Z,21.36
2019-05-05T15:23:29.884Z,21.24
2019-05-05T15:26:00.632Z,21.04
2019-05-05T15:28:33.501Z,20.97
2019-05-05T15:31:07.933Z,20.90
2019-05-05T15:33:41.123Z,20.87
2019-05-05T15:36:13.813Z,20.78
2019-05-05T15:38:44.931Z,20.73
2019-05-05T15:41:15.556Z,20.67
2019-05-05T15:43:46.186Z,20.61
2019-05-05T15:46:16.774Z,20.52
2019-05-05T15:48:47.487Z,20.54
2019-05-05T15:51:18.200Z,20.47
2019-05-05T15:53:50.492Z,20.45
2019-05-05T15:56:21.643Z,20.35
2019-05-05T15:58:53.129Z,20.26
2019-05-05T16:01:25.851Z,20.14
2019-05-05T16:03:56.598Z,20.16
2019-05-05T16:06:30.277Z,19.99
2019-05-05T16:09:01.471Z,19.94
2019-05-05T16:11:34.488Z,19.91
2019-05-05T16:14:05.218Z,19.82
2019-05-05T16:16:55.632Z,19.86
2019-05-05T16:19:46.368Z,19.78
2019-05-05T16:22:25.497Z,19.69
2019-05-05T16:25:09.498Z,19.60
2019-05-05T16:27:45.091Z,19.55
2019-05-05T16:30:18.182Z,19.50
2019-05-05T16:32:49.034Z,19.44
2019-05-05T16:35:20.968Z,19.39
2019-05-05T16:37:51.581Z,19.24
2019-05-05T16:40:26.252Z,19.14
2019-05-05T16:42:58.429Z,18.97
2019-05-05T16:45:29.726Z,18.81
2019-05-05T16:48:03.931Z,18.63
2019-05-05T16:50:36.859Z,18.52
2019-05-05T16:53:07.794Z,18.60
2019-05-05T16:56:00.487Z,18.53
2019-05-05T16:58:31.145Z,18.47
2019-05-05T17:01:17.173Z,18.27
2019-05-05T17:03:49.411Z,18.15
2019-05-05T17:06:20.230Z,18.03
2019-05-05T17:08:50.963Z,17.92
2019-05-05T17:11:21.670Z,17.85
2019-05-05T17:14:09.546Z,17.71
2019-05-05T17:16:44.216Z,17.61
2019-05-05T17:19:33.759Z,17.67
2019-05-05T17:22:08.666Z,17.66
2019-05-05T17:24:39.378Z,17.65
2019-05-05T17:27:09.997Z,17.47
2019-05-05T17:29:40.749Z,17.50
2019-05-05T17:32:11.356Z,17.44
2019-05-05T17:34:48.010Z,17.41
2019-05-05T17:37:20.178Z,17.28
2019-05-05T17:39:54.569Z,17.16
2019-05-05T17:42:45.872Z,17.14
2019-05-05T17:45:20.772Z,17.11
2019-05-05T17:48:05.162Z,17.09
2019-05-05T17:50:53.983Z,16.93
2019-05-05T17:53:38.624Z,16.89
2019-05-05T17:56:13.599Z,16.85
2019-05-05T17:58:44.530Z,16.82
2019-05-05T18:01:17.362Z,16.89
2019-05-05T18:03:54.886Z,16.78
2019-05-05T18:06:39.521Z,16.85
2019-05-05T18:09:29.865Z,16.78
2019-05-05T18:12:18.483Z,16.68
2019-05-05T18:14:50.698Z,16.67
2019-05-05T18:17:21.318Z,16.67
2019-05-05T18:19:53.673Z,16.72
2019-05-05T18:22:24.821Z,16.58
2019-05-05T18:24:56.514Z,16.62
2019-05-05T18:27:32.049Z,16.66
2019-05-05T18:30:03.995Z,16.50
2019-05-05T18:32:36.229Z,16.47
2019-05-05T18:35:07.117Z,16.49
2019-05-05T18:37:39.485Z,16.35
2019-05-05T18:40:10.262Z,16.36
2019-05-05T18:42:41.957Z,16.27
2019-05-05T18:45:14.477Z,16.33
2019-05-05T18:47:45.296Z,16.32
2019-05-05T18:50:16.680Z,16.27
2019-05-05T18:52:50.675Z,16.15
2019-05-05T18:55:21.853Z,16.28
2019-05-05T18:57:54.139Z,16.20
2019-05-05T19:00:30.458Z,16.27
2019-05-05T19:03:17.719Z,16.30
2019-05-05T19:05:46.806Z,16.25
2019-05-05T19:08:27.879Z,16.27
2019-05-05T19:11:03.711Z,16.26
2019-05-05T19:13:35.096Z,16.22
2019-05-05T19:16:05.693Z,16.07
2019-05-05T19:18:36.344Z,15.90
2019-05-05T19:21:14.605Z,15.92
2019-05-05T19:23:45.234Z,15.95
2019-05-05T19:26:15.827Z,15.87
2019-05-05T19:28:50.028Z,15.85
2019-05-05T19:31:19.272Z,15.82
2019-05-05T19:33:50.708Z,15.81
2019-05-05T19:36:22.607Z,15.72
2019-05-05T19:38:54.920Z,15.60
2019-05-05T19:41:29.424Z,15.57
2019-05-05T19:44:01.867Z,15.60
2019-05-05T19:46:34.646Z,15.46
2019-05-05T19:49:16.476Z,15.47
2019-05-05T19:51:47.797Z,15.44
2019-05-05T19:54:18.377Z,15.43
2019-05-05T19:56:49.778Z,15.44
2019-05-05T19:59:20.617Z,15.41
2019-05-05T20:01:51.396Z,15.36
2019-05-05T20:04:24.117Z,15.39
2019-05-05T20:06:55.019Z,15.39
2019-05-05T20:09:28.327Z,15.33
2019-05-05T20:12:00.024Z,15.27
2019-05-05T20:14:30.808Z,15.21
2019-05-05T20:17:10.269Z,15.16
2019-05-05T20:19:43.961Z,15.19
2019-05-05T20:22:15.463Z,15.18
2019-05-05T20:24:47.673Z,15.07
2019-05-05T20:27:18.226Z,15.00
2019-05-05T20:29:49.177Z,15.07
2019-05-05T20:32:26.193Z,14.94
2019-05-05T20:35:10.509Z,14.87
2019-05-05T20:37:47.411Z,14.96
2019-05-05T20:40:21.038Z,14.91
2019-05-05T20:42:54.257Z,14.81
2019-05-05T20:45:29.159Z,14.76
2019-05-05T20:47:59.996Z,14.79
2019-05-05T20:50:34.313Z,14.68
2019-05-05T20:53:06.639Z,14.69
2019-05-05T20:55:37.837Z,14.63
2019-05-05T20:58:08.633Z,14.55
2019-05-05T21:00:39.309Z,14.46
2019-05-05T21:03:10.622Z,14.43
2019-05-05T21:05:41.277Z,14.41
2019-05-05T21:08:14.116Z,14.30
2019-05-05T21:10:47.910Z,14.22
2019-05-05T21:13:18.477Z,14.24
2019-05-05T21:15:51.106Z,14.22
2019-05-05T21:18:25.340Z,14.23
2019-05-05T21:20:57.921Z,14.11
2019-05-05T21:23:30.467Z,14.10
2019-05-05T21:26:06.405Z,14.04
2019-05-05T21:28:37.115Z,14.07
2019-05-05T21:31:07.734Z,14.07
2019-05-05T21:33:38.853Z,14.13
2019-05-05T21:36:09.543Z,14.13
2019-05-05T21:38:40.142Z,14.07
2019-05-05T21:41:13.652Z,14.11
2019-05-05T21:43:44.823Z,14.11
2019-05-05T21:46:17.877Z,14.14
2019-05-05T21:48:48.188Z,14.19
2019-05-05T21:51:27.917Z,14.11
2019-05-05T21:54:04.435Z,14.12
2019-05-05T21:56:38.298Z,14.12
2019-05-05T21:59:08.944Z,13.96
2019-05-05T22:01:48.999Z,14.02
2019-05-05T22:04:16.368Z,14.04
2019-05-05T22:06:46.948Z,14.02
2019-05-05T22:09:19.212Z,13.95
2019-05-05T22:11:49.899Z,14.04
2019-05-05T22:14:25.856Z,13.95
2019-05-05T22:16:57.074Z,13.92
2019-05-05T22:19:31.494Z,13.94
2019-05-05T22:22:10.424Z,13.93
2019-05-05T22:24:44.410Z,13.94
2019-05-05T22:27:16.129Z,14.06
2019-05-05T22:29:46.752Z,13.99
2019-05-05T22:32:19.293Z,13.92
2019-05-05T22:34:50.229Z,13.90
2019-05-05T22:37:23.643Z,14.02
2019-05-05T22:39:56.618Z,14.04
2019-05-05T22:42:27.462Z,13.98
2019-05-05T22:44:58.194Z,13.91
2019-05-05T22:47:30.025Z,13.83
2019-05-05T22:50:00.716Z,13.73
2019-05-05T22:52:34.411Z,13.99
2019-05-05T22:55:07.467Z,13.95
2019-05-05T22:57:39.019Z,13.86
2019-05-05T23:00:25.296Z,13.94
2019-05-05T23:03:04.452Z,14.11
2019-05-05T23:05:43.988Z,14.21
2019-05-05T23:08:18.407Z,14.10
2019-05-05T23:10:49.204Z,14.18
2019-05-05T23:13:19.867Z,14.14
2019-05-05T23:15:55.057Z,14.27
2019-05-05T23:18:28.650Z,14.31
2019-05-05T23:21:04.281Z,14.31
2019-05-05T23:23:36.700Z,14.34
2019-05-05T23:26:09.029Z,14.45
2019-05-05T23:28:39.784Z,14.47
2019-05-05T23:31:16.176Z,14.53
2019-05-05T23:33:47.240Z,14.63
2019-05-05T23:36:17.937Z,14.75
2019-05-05T23:38:48.548Z,14.76
2019-05-05T23:41:19.180Z,14.75
2019-05-05T23:43:50.879Z,14.78
2019-05-05T23:46:24.152Z,14.77
2019-05-05T23:48:57.764Z,14.76
2019-05-05T23:51:34.870Z,14.80
2019-05-05T23:54:07.283Z,14.78
2019-05-05T23:56:44.162Z,14.76
2019-05-05T23:59:15.550Z,14.65
